createdAt,value
2016-09-18T00:00:58.115Z,0
2016-09-18T00:01:58.621Z,0
2016-09-18T00:02:59.760Z,0
2016-09-18T00:03:58.453Z,0
2016-09-18T00:04:57.645Z,0
2016-09-18T00:05:57.265Z,0
2016-09-18T00:06:58.906Z,0
2016-09-18T00:07:58.497Z,0
2016-09-18T00:08:58.382Z,0
2016-09-18T00:09:59.958Z,0
2016-09-18T00:10:59.313Z,0
2016-09-18T00:11:58.489Z,0
2016-09-18T00:12:58.485Z,0
2016-09-18T00:13:59.154Z,0
2016-09-18T00:14:56.758Z,0
2016-09-18T00:15:58.307Z,0
2016-09-18T00:16:59.573Z,0
2016-09-18T00:17:58.705Z,0
2016-09-18T00:18:57.930Z,0
2016-09-18T00:19:58.276Z,0
2016-09-18T00:20:59.143Z,0
2016-09-18T00:21:58.709Z,0
2016-09-18T00:22:59.593Z,0
2016-09-18T00:23:58.896Z,0
2016-09-18T00:24:58.200Z,0
2016-09-18T00:25:58.077Z,0
2016-09-18T00:26:59.315Z,0
2016-09-18T00:27:57.875Z,0
2016-09-18T00:28:58.408Z,0
2016-09-18T00:29:58.019Z,0
2016-09-18T00:30:58.868Z,0
2016-09-18T00:31:59.767Z,0
2016-09-18T00:32:58.559Z,0
2016-09-18T00:33:58.381Z,0
2016-09-18T00:35:00.010Z,0
2016-09-18T00:36:00.706Z,0
2016-09-18T00:36:59.187Z,0
2016-09-18T00:37:58.655Z,0
2016-09-18T00:38:59.521Z,0
2016-09-18T00:39:58.562Z,0
2016-09-18T00:40:57.804Z,0
2016-09-18T00:42:00.263Z,0
2016-09-18T00:42:58.677Z,0
2016-09-18T00:43:59.490Z,0
2016-09-18T00:44:59.226Z,0
2016-09-18T00:45:59.233Z,0
2016-09-18T00:46:58.434Z,0
2016-09-18T00:47:58.723Z,0
2016-09-18T00:48:59.252Z,0
2016-09-18T00:50:01.293Z,0
2016-09-18T00:50:59.937Z,0
2016-09-18T00:51:58.503Z,0
2016-09-18T00:52:59.667Z,0
2016-09-18T00:53:59.483Z,0
2016-09-18T00:54:59.201Z,0
2016-09-18T00:55:59.962Z,0
2016-09-18T00:56:58.727Z,0
2016-09-18T00:57:58.046Z,0
2016-09-18T00:58:59.285Z,0
2016-09-18T00:59:58.628Z,0
2016-09-18T01:00:59.658Z,0
2016-09-18T01:01:58.874Z,0
2016-09-18T01:03:01.101Z,0
2016-09-18T01:04:01.285Z,0
2016-09-18T01:05:01.774Z,0
2016-09-18T01:06:01.182Z,0
2016-09-18T01:06:58.754Z,0
2016-09-18T01:07:58.263Z,0
2016-09-18T01:08:59.785Z,0
2016-09-18T01:10:00.431Z,0
2016-09-18T01:10:59.238Z,0
2016-09-18T01:11:58.595Z,0
2016-09-18T01:12:59.642Z,0
2016-09-18T01:14:00.281Z,0
2016-09-18T01:14:59.353Z,0
2016-09-18T01:16:00.898Z,0
2016-09-18T01:16:59.587Z,0
2016-09-18T01:18:00.489Z,0
2016-09-18T01:19:00.758Z,0
2016-09-18T01:20:01.094Z,0
2016-09-18T01:21:00.374Z,0
2016-09-18T01:22:01.344Z,0
2016-09-18T01:22:59.824Z,0
2016-09-18T01:23:58.926Z,0
2016-09-18T01:25:00.541Z,0
2016-09-18T01:26:01.334Z,0
2016-09-18T01:26:59.547Z,0
2016-09-18T01:27:59.230Z,0
2016-09-18T01:28:59.892Z,0
2016-09-18T01:29:58.956Z,0
2016-09-18T01:31:01.187Z,0
2016-09-18T01:31:59.366Z,0
2016-09-18T01:33:01.604Z,0
2016-09-18T01:34:00.537Z,0
2016-09-18T01:35:01.160Z,0
2016-09-18T01:36:01.098Z,0
2016-09-18T01:37:00.519Z,0
2016-09-18T01:38:02.106Z,0
2016-09-18T01:38:58.993Z,0
2016-09-18T01:39:59.263Z,0
2016-09-18T01:41:00.850Z,0
2016-09-18T01:42:00.559Z,0
2016-09-18T01:43:00.995Z,0
2016-09-18T01:43:59.795Z,0
2016-09-18T01:45:01.611Z,0
2016-09-18T01:46:00.353Z,0
2016-09-18T01:47:01.206Z,0
2016-09-18T01:48:01.263Z,0
2016-09-18T01:49:02.563Z,0
2016-09-18T01:49:59.988Z,0
2016-09-18T01:51:01.319Z,0
2016-09-18T01:51:59.884Z,0
2016-09-18T01:53:00.706Z,0
2016-09-18T01:54:01.869Z,0
2016-09-18T01:55:01.165Z,0
2016-09-18T01:55:59.964Z,0
2016-09-18T01:57:01.781Z,0
2016-09-18T01:58:00.910Z,0
2016-09-18T01:58:59.652Z,0
2016-09-18T02:00:00.749Z,0
2016-09-18T02:00:59.509Z,0
2016-09-18T02:02:01.239Z,0
2016-09-18T02:03:01.181Z,0
2016-09-18T02:04:01.195Z,0
2016-09-18T02:05:00.011Z,0
2016-09-18T02:06:00.367Z,0
2016-09-18T02:07:01.383Z,0
2016-09-18T02:08:00.826Z,0
2016-09-18T02:08:59.378Z,0
2016-09-18T02:10:01.680Z,0
2016-09-18T02:10:59.860Z,0
2016-09-18T02:11:59.493Z,0
2016-09-18T02:13:01.734Z,0
2016-09-18T02:14:01.393Z,0
2016-09-18T02:14:59.703Z,0
2016-09-18T02:16:00.753Z,0
2016-09-18T02:17:01.454Z,0
2016-09-18T02:18:01.169Z,0
2016-09-18T02:18:59.302Z,0
2016-09-18T02:20:00.935Z,0
2016-09-18T02:21:01.024Z,0
2016-09-18T02:21:59.883Z,0
2016-09-18T02:23:02.617Z,0
2016-09-18T02:24:00.568Z,0
2016-09-18T02:25:00.935Z,0
2016-09-18T02:25:59.926Z,0
2016-09-18T02:27:00.732Z,0
2016-09-18T02:28:02.099Z,0
2016-09-18T02:29:00.657Z,0
2016-09-18T02:30:01.391Z,0
2016-09-18T02:31:01.295Z,0
2016-09-18T02:32:00.716Z,0
2016-09-18T02:33:01.760Z,0
2016-09-18T02:34:01.735Z,0
2016-09-18T02:35:00.891Z,0
2016-09-18T02:36:01.583Z,0
2016-09-18T02:37:00.588Z,0
2016-09-18T02:38:01.213Z,0
2016-09-18T02:39:02.233Z,0
2016-09-18T02:40:01.643Z,0
2016-09-18T02:41:01.124Z,0
2016-09-18T02:42:01.543Z,0
2016-09-18T02:43:02.137Z,0
2016-09-18T02:44:01.749Z,0
2016-09-18T02:45:01.110Z,0
2016-09-18T02:46:02.895Z,0
2016-09-18T02:47:03.075Z,0
2016-09-18T02:48:03.507Z,0
2016-09-18T02:49:01.024Z,0
2016-09-18T02:50:02.032Z,0
2016-09-18T02:51:02.166Z,0
2016-09-18T02:52:01.358Z,0
2016-09-18T02:53:02.103Z,0
2016-09-18T02:54:01.425Z,0
2016-09-18T02:55:01.410Z,0
2016-09-18T02:56:02.073Z,0
2016-09-18T02:57:01.242Z,0
2016-09-18T02:58:01.953Z,0
2016-09-18T02:59:02.728Z,0
2016-09-18T03:00:01.432Z,0
2016-09-18T03:01:01.680Z,0
2016-09-18T03:02:02.498Z,0
2016-09-18T03:03:01.714Z,0
2016-09-18T03:04:01.276Z,0
2016-09-18T03:05:01.757Z,0
2016-09-18T03:06:01.321Z,0
2016-09-18T03:07:01.503Z,0
2016-09-18T03:08:02.929Z,0
2016-09-18T03:09:02.280Z,0
2016-09-18T03:10:03.498Z,0
2016-09-18T03:11:02.157Z,0
2016-09-18T03:12:02.161Z,0
2016-09-18T03:13:02.644Z,0
2016-09-18T03:14:02.314Z,0
2016-09-18T03:15:02.638Z,0
2016-09-18T03:16:01.188Z,0
2016-09-18T03:17:02.379Z,0
2016-09-18T03:18:02.956Z,0
2016-09-18T03:19:02.346Z,0
2016-09-18T03:20:03.033Z,0
2016-09-18T03:21:02.520Z,0
2016-09-18T03:22:02.501Z,0
2016-09-18T03:23:04.309Z,0
2016-09-18T03:24:01.935Z,0
2016-09-18T03:25:01.996Z,0
2016-09-18T03:26:03.677Z,0
2016-09-18T03:27:01.977Z,0
2016-09-18T03:28:02.091Z,0
2016-09-18T03:29:04.029Z,0
2016-09-18T03:30:02.163Z,0
2016-09-18T03:31:01.908Z,0
2016-09-18T03:32:03.473Z,0
2016-09-18T03:33:04.652Z,0
2016-09-18T03:34:02.806Z,0
2016-09-18T03:35:02.337Z,0
2016-09-18T03:36:02.672Z,0
2016-09-18T03:37:05.578Z,0
2016-09-18T03:38:03.169Z,0
2016-09-18T03:39:02.169Z,0
2016-09-18T03:40:02.268Z,0
2016-09-18T03:41:04.160Z,0
2016-09-18T03:42:02.380Z,0
2016-09-18T03:43:02.024Z,0
2016-09-18T03:44:02.698Z,0
2016-09-18T03:45:02.876Z,0
2016-09-18T03:46:02.265Z,0
2016-09-18T03:47:02.457Z,0
2016-09-18T03:48:04.884Z,0
2016-09-18T03:49:03.224Z,0
2016-09-18T03:50:03.544Z,0
2016-09-18T03:51:04.534Z,0
2016-09-18T03:52:03.168Z,0
2016-09-18T03:53:02.003Z,0
2016-09-18T03:54:02.784Z,0
2016-09-18T03:55:02.196Z,0
2016-09-18T03:56:03.246Z,0
2016-09-18T03:57:03.543Z,0
2016-09-18T03:58:05.334Z,0
2016-09-18T03:59:02.518Z,0
2016-09-18T04:00:05.007Z,0
2016-09-18T04:01:03.281Z,0
2016-09-18T04:02:03.770Z,0
2016-09-18T04:03:02.417Z,0
2016-09-18T04:04:02.574Z,0
2016-09-18T04:05:02.453Z,0
2016-09-18T04:06:04.853Z,0
2016-09-18T04:07:03.147Z,0
2016-09-18T04:08:06.663Z,0
2016-09-18T04:09:02.699Z,0
2016-09-18T04:10:04.833Z,0
2016-09-18T04:11:02.955Z,0
2016-09-18T04:12:03.701Z,0
2016-09-18T04:13:02.420Z,0
2016-09-18T04:14:02.631Z,0
2016-09-18T04:15:02.775Z,0
2016-09-18T04:16:03.057Z,0
2016-09-18T04:17:03.002Z,0
2016-09-18T04:18:04.309Z,0
2016-09-18T04:19:02.701Z,0
2016-09-18T04:20:03.837Z,0
2016-09-18T04:21:05.840Z,0
2016-09-18T04:22:03.754Z,0
2016-09-18T04:23:06.198Z,0
2016-09-18T04:24:04.177Z,0
2016-09-18T04:25:03.930Z,0
2016-09-18T04:26:03.088Z,0
2016-09-18T04:27:04.549Z,0
2016-09-18T04:28:04.352Z,0
2016-09-18T04:29:04.317Z,0
2016-09-18T04:30:04.925Z,0
2016-09-18T04:31:03.641Z,0
2016-09-18T04:32:05.165Z,0
2016-09-18T04:33:02.552Z,0
2016-09-18T04:34:02.686Z,4
2016-09-18T04:35:02.352Z,4
2016-09-18T04:36:02.382Z,0
2016-09-18T04:37:02.787Z,0
2016-09-18T04:38:04.356Z,4
2016-09-18T04:39:04.874Z,4
2016-09-18T04:40:06.392Z,4
2016-09-18T04:41:04.895Z,8
2016-09-18T04:42:03.754Z,8
2016-09-18T04:43:03.123Z,8
2016-09-18T04:44:03.655Z,8
2016-09-18T04:45:03.549Z,8
2016-09-18T04:46:05.777Z,8
2016-09-18T04:47:05.831Z,12
2016-09-18T04:48:04.817Z,12
2016-09-18T04:49:04.411Z,16
2016-09-18T04:50:05.664Z,20
2016-09-18T04:51:05.985Z,24
2016-09-18T04:52:03.893Z,28
2016-09-18T04:53:05.132Z,32
2016-09-18T04:54:04.448Z,36
2016-09-18T04:55:05.751Z,44
2016-09-18T04:56:04.204Z,52
2016-09-18T04:57:04.813Z,64
2016-09-18T04:58:05.716Z,88
2016-09-18T04:59:05.910Z,112
2016-09-18T05:00:04.215Z,132
2016-09-18T05:01:04.724Z,160
2016-09-18T05:02:04.949Z,200
2016-09-18T05:03:03.952Z,220
2016-09-18T05:04:06.244Z,248
2016-09-18T05:05:04.359Z,260
2016-09-18T05:06:04.120Z,260
2016-09-18T05:07:06.204Z,252
2016-09-18T05:08:05.055Z,252
2016-09-18T05:09:04.017Z,276
2016-09-18T05:10:05.442Z,320
2016-09-18T05:11:04.539Z,384
2016-09-18T05:12:05.561Z,420
2016-09-18T05:13:05.158Z,348
2016-09-18T05:14:04.772Z,328
2016-09-18T05:15:04.394Z,332
2016-09-18T05:16:06.606Z,372
2016-09-18T05:17:04.786Z,428
2016-09-18T05:18:05.695Z,492
2016-09-18T05:19:04.413Z,544
2016-09-18T05:20:04.953Z,600
2016-09-18T05:21:04.287Z,696
2016-09-18T05:22:06.065Z,736
2016-09-18T05:23:04.330Z,768
2016-09-18T05:24:05.008Z,812
2016-09-18T05:25:06.869Z,820
2016-09-18T05:26:05.703Z,820
2016-09-18T05:27:05.117Z,832
2016-09-18T05:28:05.114Z,884
2016-09-18T05:29:06.959Z,988
2016-09-18T05:30:05.843Z,1036
2016-09-18T05:31:04.503Z,1136
2016-09-18T05:32:06.880Z,1188
2016-09-18T05:33:07.747Z,1488
2016-09-18T05:34:05.569Z,1632
2016-09-18T05:35:04.033Z,1576
2016-09-18T05:36:06.773Z,1508
2016-09-18T05:37:05.371Z,1304
2016-09-18T05:38:06.890Z,1104
2016-09-18T05:39:06.950Z,1300
2016-09-18T05:40:04.523Z,1468
2016-09-18T05:41:05.954Z,1552
2016-09-18T05:42:04.992Z,1508
2016-09-18T05:43:06.332Z,1420
2016-09-18T05:44:06.480Z,1336
2016-09-18T05:45:05.699Z,1308
2016-09-18T05:46:05.761Z,1236
2016-09-18T05:47:05.174Z,1252
2016-09-18T05:48:05.356Z,1404
2016-09-18T05:49:04.673Z,1724
2016-09-18T05:50:05.483Z,1852
2016-09-18T05:51:04.820Z,1788
2016-09-18T05:52:06.108Z,2048
2016-09-18T05:53:05.440Z,2372
2016-09-18T05:54:05.600Z,2288
2016-09-18T05:55:05.186Z,2484
2016-09-18T05:56:04.939Z,2960
2016-09-18T05:57:05.386Z,3012
2016-09-18T05:58:06.454Z,3436
2016-09-18T05:59:06.621Z,4308
2016-09-18T06:00:06.742Z,4588
2016-09-18T06:01:06.148Z,5112
2016-09-18T06:02:06.540Z,5460
2016-09-18T06:03:04.328Z,5540
2016-09-18T06:04:05.776Z,5600
2016-09-18T06:05:04.864Z,5464
2016-09-18T06:06:05.609Z,5392
2016-09-18T06:07:05.479Z,5256
2016-09-18T06:08:05.341Z,5308
2016-09-18T06:09:06.078Z,5620
2016-09-18T06:10:07.452Z,5380
2016-09-18T06:11:05.418Z,5288
2016-09-18T06:12:05.441Z,4944
2016-09-18T06:13:04.801Z,4816
2016-09-18T06:14:05.670Z,4632
2016-09-18T06:15:06.008Z,3920
2016-09-18T06:16:06.052Z,3172
2016-09-18T06:17:05.037Z,2896
2016-09-18T06:18:04.897Z,3100
2016-09-18T06:19:05.662Z,3176
2016-09-18T06:20:05.647Z,2808
2016-09-18T06:21:07.073Z,2560
2016-09-18T06:22:07.092Z,2380
2016-09-18T06:23:05.836Z,2636
2016-09-18T06:24:06.437Z,3456
2016-09-18T06:25:07.332Z,3656
2016-09-18T06:26:07.676Z,3580
2016-09-18T06:27:05.942Z,3544
2016-09-18T06:28:05.290Z,3516
2016-09-18T06:29:07.421Z,3680
2016-09-18T06:30:05.247Z,4008
2016-09-18T06:31:07.864Z,4404
2016-09-18T06:32:05.385Z,4652
2016-09-18T06:33:05.986Z,4680
2016-09-18T06:34:05.679Z,4628
2016-09-18T06:35:07.789Z,4464
2016-09-18T06:36:06.697Z,4288
2016-09-18T06:37:06.551Z,4728
2016-09-18T06:38:05.877Z,4952
2016-09-18T06:39:06.698Z,4800
2016-09-18T06:40:08.409Z,4592
2016-09-18T06:41:06.450Z,4752
2016-09-18T06:42:06.993Z,5664
2016-09-18T06:43:07.891Z,6580
2016-09-18T06:44:07.167Z,6776
2016-09-18T06:45:06.891Z,6696
2016-09-18T06:46:06.679Z,6048
2016-09-18T06:47:06.535Z,5648
2016-09-18T06:48:06.460Z,5236
2016-09-18T06:49:07.237Z,5292
2016-09-18T06:50:07.268Z,5656
2016-09-18T06:51:07.751Z,6060
2016-09-18T06:52:06.344Z,5984
2016-09-18T06:53:06.173Z,5748
2016-09-18T06:54:08.192Z,5556
2016-09-18T06:55:07.083Z,5136
2016-09-18T06:56:07.139Z,4912
2016-09-18T06:57:07.371Z,5320
2016-09-18T06:58:07.279Z,5888
2016-09-18T06:59:07.320Z,6092
2016-09-18T07:00:06.349Z,6672
2016-09-18T07:01:06.770Z,6840
2016-09-18T07:02:06.858Z,7684
2016-09-18T07:03:06.202Z,8796
2016-09-18T07:04:07.119Z,8872
2016-09-18T07:05:06.528Z,9796
2016-09-18T07:06:09.101Z,10528
2016-09-18T07:07:07.673Z,9944
2016-09-18T07:08:07.008Z,10292
2016-09-18T07:09:08.045Z,10716
2016-09-18T07:10:07.620Z,11716
2016-09-18T07:11:07.567Z,11432
2016-09-18T07:12:06.041Z,10992
2016-09-18T07:13:08.778Z,10468
2016-09-18T07:14:07.191Z,10148
2016-09-18T07:15:06.485Z,10008
2016-09-18T07:16:08.511Z,9996
2016-09-18T07:17:05.698Z,10456
2016-09-18T07:18:05.954Z,11204
2016-09-18T07:19:06.890Z,11632
2016-09-18T07:20:08.857Z,11872
2016-09-18T07:21:08.066Z,12664
2016-09-18T07:22:08.609Z,14804
2016-09-18T07:23:07.184Z,16216
2016-09-18T07:24:07.400Z,17536
2016-09-18T07:25:06.879Z,17280
2016-09-18T07:26:08.829Z,15816
2016-09-18T07:27:07.706Z,16120
2016-09-18T07:28:06.571Z,16576
2016-09-18T07:29:07.520Z,16384
2016-09-18T07:30:06.994Z,15500
2016-09-18T07:31:06.826Z,15008
2016-09-18T07:32:07.525Z,15960
2016-09-18T07:33:07.845Z,17056
2016-09-18T07:34:07.451Z,16704
2016-09-18T07:35:07.869Z,16544
2016-09-18T07:36:06.190Z,15152
2016-09-18T07:37:08.706Z,15252
2016-09-18T07:38:07.942Z,15316
2016-09-18T07:39:07.076Z,15416
2016-09-18T07:40:07.477Z,15340
2016-09-18T07:41:07.941Z,14400
2016-09-18T07:42:08.227Z,14084
2016-09-18T07:43:08.352Z,13324
2016-09-18T07:44:06.932Z,11648
2016-09-18T07:45:07.757Z,11508
2016-09-18T07:46:07.820Z,10820
2016-09-18T07:47:07.727Z,10412
2016-09-18T07:48:08.832Z,9252
2016-09-18T07:49:07.485Z,8408
2016-09-18T07:50:09.169Z,9552
2016-09-18T07:51:08.742Z,9792
2016-09-18T07:52:07.764Z,9904
2016-09-18T07:53:09.704Z,10016
2016-09-18T07:54:08.035Z,9484
2016-09-18T07:55:07.161Z,9544
2016-09-18T07:56:08.119Z,8864
2016-09-18T07:57:07.756Z,7720
2016-09-18T07:58:07.988Z,7328
2016-09-18T07:59:08.688Z,7272
2016-09-18T08:00:08.725Z,7544
2016-09-18T08:01:10.972Z,8484
2016-09-18T08:02:07.745Z,9880
2016-09-18T08:03:09.482Z,9836
2016-09-18T08:04:08.604Z,8068
2016-09-18T08:05:07.032Z,7868
2016-09-18T08:06:08.225Z,8160
2016-09-18T08:07:07.245Z,8656
2016-09-18T08:08:09.223Z,10076
2016-09-18T08:09:08.226Z,10216
2016-09-18T08:10:08.355Z,8168
2016-09-18T08:11:07.225Z,7948
2016-09-18T08:12:07.552Z,11464
2016-09-18T08:13:07.861Z,13864
2016-09-18T08:14:09.266Z,13524
2016-09-18T08:15:08.387Z,10452
2016-09-18T08:16:07.635Z,11248
2016-09-18T08:17:08.119Z,9576
2016-09-18T08:18:08.426Z,8884
2016-09-18T08:19:07.969Z,9000
2016-09-18T08:20:08.712Z,9696
2016-09-18T08:21:07.652Z,10996
2016-09-18T08:22:09.579Z,11368
2016-09-18T08:23:07.913Z,10788
2016-09-18T08:24:08.181Z,11140
2016-09-18T08:25:08.495Z,12596
2016-09-18T08:26:09.336Z,13024
2016-09-18T08:27:09.070Z,11968
2016-09-18T08:28:08.418Z,11932
2016-09-18T08:29:09.027Z,12212
2016-09-18T08:30:08.768Z,12344
2016-09-18T08:31:09.687Z,12936
2016-09-18T08:32:08.067Z,12004
2016-09-18T08:33:08.197Z,13232
2016-09-18T08:34:08.246Z,15656
2016-09-18T08:35:09.641Z,34464
2016-09-18T08:36:09.567Z,34080
2016-09-18T08:37:08.629Z,31232
2016-09-18T08:38:09.524Z,19168
2016-09-18T08:39:10.936Z,35360
2016-09-18T08:40:09.649Z,21952
2016-09-18T08:41:08.080Z,32800
2016-09-18T08:42:10.165Z,43520
2016-09-18T08:43:09.990Z,25024
2016-09-18T08:44:09.955Z,13724
2016-09-18T08:45:09.412Z,19488
2016-09-18T08:46:09.357Z,13856
2016-09-18T08:47:08.687Z,13772
2016-09-18T08:48:08.714Z,16544
2016-09-18T08:49:10.407Z,24128
2016-09-18T08:50:11.566Z,23872
2016-09-18T08:51:10.559Z,21152
2016-09-18T08:52:09.932Z,19936
2016-09-18T08:53:08.447Z,29984
2016-09-18T08:54:10.392Z,15076
2016-09-18T08:55:08.480Z,14656
2016-09-18T08:56:09.188Z,21984
2016-09-18T08:57:10.581Z,16032
2016-09-18T08:58:10.594Z,17920
2016-09-18T08:59:10.142Z,25920
2016-09-18T09:00:10.886Z,45216
2016-09-18T09:01:10.658Z,25056
2016-09-18T09:02:10.760Z,31456
2016-09-18T09:03:09.184Z,39136
2016-09-18T09:04:09.649Z,50368
2016-09-18T09:05:09.521Z,45472
2016-09-18T09:06:10.883Z,43552
2016-09-18T09:07:10.816Z,52064
2016-09-18T09:08:09.933Z,51040
2016-09-18T09:09:10.306Z,21312
2016-09-18T09:10:08.968Z,19776
2016-09-18T09:11:09.909Z,18976
2016-09-18T09:12:09.819Z,18720
2016-09-18T09:13:10.163Z,54176
2016-09-18T09:14:10.249Z,21120
2016-09-18T09:15:08.657Z,31296
2016-09-18T09:16:11.466Z,15704
2016-09-18T09:17:10.998Z,17824
2016-09-18T09:18:09.506Z,22304
2016-09-18T09:19:09.313Z,38176
2016-09-18T09:20:12.266Z,34688
2016-09-18T09:21:11.432Z,17600
2016-09-18T09:22:10.405Z,18176
2016-09-18T09:23:11.316Z,42144
2016-09-18T09:24:11.917Z,44704
2016-09-18T09:25:10.440Z,16384
2016-09-18T09:26:10.564Z,15624
2016-09-18T09:27:09.713Z,48224
2016-09-18T09:28:09.575Z,35744
2016-09-18T09:29:09.670Z,51264
2016-09-18T09:30:10.356Z,34976
2016-09-18T09:31:10.927Z,20672
2016-09-18T09:32:11.878Z,22112
2016-09-18T09:33:09.648Z,59872
2016-09-18T09:34:09.818Z,57632
2016-09-18T09:35:11.177Z,48448
2016-09-18T09:36:11.185Z,42816
2016-09-18T09:37:09.710Z,49120
2016-09-18T09:38:10.758Z,54528
2016-09-18T09:39:10.629Z,38720
2016-09-18T09:40:09.535Z,48704
2016-09-18T09:41:08.754Z,53696
2016-09-18T09:42:08.931Z,56448
2016-09-18T09:43:11.034Z,45792
2016-09-18T09:44:10.521Z,50496
2016-09-18T09:45:10.490Z,49312
2016-09-18T09:46:09.531Z,54592
2016-09-18T09:47:08.664Z,40832
2016-09-18T09:48:10.968Z,30848
2016-09-18T09:49:12.825Z,23840
2016-09-18T09:50:11.346Z,25472
2016-09-18T09:51:11.034Z,27968
2016-09-18T09:52:10.644Z,28160
2016-09-18T09:53:10.596Z,27072
2016-09-18T09:54:11.009Z,27520
2016-09-18T09:55:10.122Z,28064
2016-09-18T09:56:10.471Z,28320
2016-09-18T09:57:11.967Z,25824
2016-09-18T09:58:10.697Z,26272
2016-09-18T09:59:12.389Z,29472
2016-09-18T10:00:11.585Z,22304
2016-09-18T10:01:10.899Z,24096
2016-09-18T10:02:10.421Z,30784
2016-09-18T10:03:11.345Z,29184
2016-09-18T10:04:10.668Z,31776
2016-09-18T10:05:10.820Z,28064
2016-09-18T10:06:12.973Z,23648
2016-09-18T10:07:10.858Z,25792
2016-09-18T10:08:11.330Z,23808
2016-09-18T10:09:11.618Z,25248
2016-09-18T10:10:11.687Z,24672
2016-09-18T10:11:10.458Z,23904
2016-09-18T10:12:10.577Z,18336
2016-09-18T10:13:12.170Z,24384
2016-09-18T10:14:11.600Z,21184
2016-09-18T10:15:10.441Z,20256
2016-09-18T10:16:10.549Z,22912
2016-09-18T10:17:11.601Z,20160
2016-09-18T10:18:11.805Z,17696
2016-09-18T10:19:11.762Z,18880
2016-09-18T10:20:11.399Z,25504
2016-09-18T10:21:11.612Z,16664
2016-09-18T10:22:11.547Z,19072
2016-09-18T10:23:11.001Z,12128
2016-09-18T10:24:12.928Z,17452
2016-09-18T10:25:11.375Z,18656
2016-09-18T10:26:10.764Z,19584
2016-09-18T10:27:11.547Z,16660
2016-09-18T10:28:12.219Z,14260
2016-09-18T10:29:11.751Z,17728
2016-09-18T10:30:11.588Z,14020
2016-09-18T10:31:11.027Z,12552
2016-09-18T10:32:12.398Z,13536
2016-09-18T10:33:12.028Z,18432
2016-09-18T10:34:11.613Z,17276
2016-09-18T10:35:12.229Z,17264
2016-09-18T10:36:11.634Z,14208
2016-09-18T10:37:12.807Z,15452
2016-09-18T10:38:11.810Z,18016
2016-09-18T10:39:11.583Z,12020
2016-09-18T10:40:11.196Z,15124
2016-09-18T10:41:12.095Z,13032
2016-09-18T10:42:12.104Z,13220
2016-09-18T10:43:11.292Z,18784
2016-09-18T10:44:11.666Z,19232
2016-09-18T10:45:12.663Z,19328
2016-09-18T10:46:11.009Z,19488
2016-09-18T10:47:11.825Z,19776
2016-09-18T10:48:13.027Z,15112
2016-09-18T10:49:12.370Z,19040
2016-09-18T10:50:11.889Z,18944
2016-09-18T10:51:11.377Z,19808
2016-09-18T10:52:11.937Z,19904
2016-09-18T10:53:13.582Z,19200
2016-09-18T10:54:12.234Z,21824
2016-09-18T10:55:12.085Z,18400
2016-09-18T10:56:12.925Z,18496
2016-09-18T10:57:12.058Z,14696
2016-09-18T10:58:12.794Z,18720
2016-09-18T10:59:11.327Z,13508
2016-09-18T11:00:11.965Z,16576
2016-09-18T11:01:12.680Z,19488
2016-09-18T11:02:12.163Z,14840
2016-09-18T11:03:12.425Z,19168
2016-09-18T11:04:11.806Z,15692
2016-09-18T11:05:13.519Z,17828
2016-09-18T11:06:13.079Z,18080
2016-09-18T11:07:11.491Z,15032
2016-09-18T11:08:13.588Z,17024
2016-09-18T11:09:12.449Z,17244
2016-09-18T11:10:13.004Z,17856
2016-09-18T11:11:13.559Z,18304
2016-09-18T11:12:13.714Z,16632
2016-09-18T11:13:12.719Z,18592
2016-09-18T11:14:12.627Z,17676
2016-09-18T11:15:13.572Z,12588
2016-09-18T11:16:12.740Z,16572
2016-09-18T11:17:13.216Z,17124
2016-09-18T11:18:13.233Z,18336
2016-09-18T11:19:12.356Z,17768
2016-09-18T11:20:14.191Z,17600
2016-09-18T11:21:14.364Z,16364
2016-09-18T11:22:13.227Z,12784
2016-09-18T11:23:14.686Z,16784
2016-09-18T11:24:14.141Z,17084
2016-09-18T11:25:12.847Z,16900
2016-09-18T11:26:12.125Z,16292
2016-09-18T11:27:12.821Z,16640
2016-09-18T11:28:13.671Z,16328
2016-09-18T11:29:13.083Z,16068
2016-09-18T11:30:13.264Z,15812
2016-09-18T11:31:13.579Z,16000
2016-09-18T11:32:12.056Z,16012
2016-09-18T11:33:13.389Z,15344
2016-09-18T11:34:13.287Z,15288
2016-09-18T11:35:14.074Z,15680
2016-09-18T11:36:14.915Z,15792
2016-09-18T11:37:13.484Z,15864
2016-09-18T11:38:13.577Z,15868
2016-09-18T11:39:12.770Z,16200
2016-09-18T11:40:12.800Z,16420
2016-09-18T11:41:13.131Z,16528
2016-09-18T11:42:13.286Z,16580
2016-09-18T11:43:13.269Z,16140
2016-09-18T11:44:12.901Z,16268
2016-09-18T11:45:13.231Z,16256
2016-09-18T11:46:14.371Z,16464
2016-09-18T11:47:14.555Z,12156
2016-09-18T11:48:12.990Z,12012
2016-09-18T11:49:15.004Z,17588
2016-09-18T11:50:13.609Z,13120
2016-09-18T11:51:15.691Z,14088
2016-09-18T11:52:13.400Z,19648
2016-09-18T11:53:15.826Z,22144
2016-09-18T11:54:12.937Z,25216
2016-09-18T11:55:14.233Z,21280
2016-09-18T11:56:14.147Z,21024
2016-09-18T11:57:13.774Z,18720
2016-09-18T11:58:14.021Z,17316
2016-09-18T11:59:14.064Z,16592
2016-09-18T12:00:14.338Z,19584
2016-09-18T12:01:14.367Z,18336
2016-09-18T12:02:13.374Z,18208
2016-09-18T12:03:14.390Z,18272
2016-09-18T12:04:14.157Z,18592
2016-09-18T12:05:14.427Z,13136
2016-09-18T12:06:14.983Z,13664
2016-09-18T12:07:14.805Z,15256
2016-09-18T12:08:14.236Z,15316
2016-09-18T12:09:15.368Z,22976
2016-09-18T12:10:14.274Z,18560
2016-09-18T12:11:14.493Z,20000
2016-09-18T12:12:14.575Z,21056
2016-09-18T12:13:16.587Z,22656
2016-09-18T12:14:14.276Z,20096
2016-09-18T12:15:14.272Z,20384
2016-09-18T12:16:14.043Z,18400
2016-09-18T12:17:15.660Z,20096
2016-09-18T12:18:14.947Z,19840
2016-09-18T12:19:15.424Z,19552
2016-09-18T12:20:13.547Z,24224
2016-09-18T12:21:14.901Z,25344
2016-09-18T12:22:14.106Z,25472
2016-09-18T12:23:15.011Z,25984
2016-09-18T12:24:15.426Z,26592
2016-09-18T12:25:14.830Z,21056
2016-09-18T12:26:15.140Z,23104
2016-09-18T12:27:14.322Z,27424
2016-09-18T12:28:16.109Z,25888
2016-09-18T12:29:14.766Z,26496
2016-09-18T12:30:14.316Z,25504
2016-09-18T12:31:15.790Z,21760
2016-09-18T12:32:16.190Z,18272
2016-09-18T12:33:14.545Z,15076
2016-09-18T12:34:14.237Z,13892
2016-09-18T12:35:15.552Z,15040
2016-09-18T12:36:14.494Z,14732
2016-09-18T12:37:16.609Z,15636
2016-09-18T12:38:15.977Z,16348
2016-09-18T12:39:15.850Z,17856
2016-09-18T12:40:15.776Z,25120
2016-09-18T12:41:14.748Z,25984
2016-09-18T12:42:14.412Z,20384
2016-09-18T12:43:16.901Z,22176
2016-09-18T12:44:16.227Z,19968
2016-09-18T12:45:16.158Z,18176
2016-09-18T12:46:15.611Z,17952
2016-09-18T12:47:16.419Z,17664
2016-09-18T12:48:15.739Z,17600
2016-09-18T12:49:16.410Z,15492
2016-09-18T12:50:15.130Z,19616
2016-09-18T12:51:15.365Z,21312
2016-09-18T12:52:16.833Z,22848
2016-09-18T12:53:15.946Z,20032
2016-09-18T12:54:16.870Z,19136
2016-09-18T12:55:15.966Z,25312
2016-09-18T12:56:17.757Z,26368
2016-09-18T12:57:16.432Z,23488
2016-09-18T12:58:16.670Z,21632
2016-09-18T12:59:15.504Z,16896
2016-09-18T13:00:16.003Z,14516
2016-09-18T13:01:16.557Z,14452
2016-09-18T13:02:16.840Z,13968
2016-09-18T13:03:16.757Z,12580
2016-09-18T13:04:15.616Z,11220
2016-09-18T13:05:17.370Z,10988
2016-09-18T13:06:15.415Z,10212
2016-09-18T13:07:17.241Z,10144
2016-09-18T13:08:18.089Z,9948
2016-09-18T13:09:16.284Z,9696
2016-09-18T13:10:16.129Z,8832
2016-09-18T13:11:16.263Z,13352
2016-09-18T13:12:15.808Z,14204
2016-09-18T13:13:16.738Z,14508
2016-09-18T13:14:16.464Z,14768
2016-09-18T13:15:16.133Z,15556
2016-09-18T13:16:16.842Z,16104
2016-09-18T13:17:17.234Z,17100
2016-09-18T13:18:17.075Z,18816
2016-09-18T13:19:16.496Z,20352
2016-09-18T13:20:17.265Z,20960
2016-09-18T13:21:16.081Z,21248
2016-09-18T13:22:17.709Z,21248
2016-09-18T13:23:17.986Z,20544
2016-09-18T13:24:16.345Z,17760
2016-09-18T13:25:18.075Z,21408
2016-09-18T13:26:16.184Z,21120
2016-09-18T13:27:16.545Z,20032
2016-09-18T13:28:16.134Z,18848
2016-09-18T13:29:17.329Z,17568
2016-09-18T13:30:16.455Z,16416
2016-09-18T13:31:16.260Z,13828
2016-09-18T13:32:16.643Z,12540
2016-09-18T13:33:16.502Z,8812
2016-09-18T13:34:17.350Z,8568
2016-09-18T13:35:16.491Z,10384
2016-09-18T13:36:16.009Z,9600
2016-09-18T13:37:16.895Z,13984